Airfield :
LOGIN :

Register | Disclaimer

   EN    FR    IT 

 










Legend :    VFR   Marginal VFR   IFR   Intensive IFR   Very Intensive IFR
Visi :
Ceiling :
>= 8 km
>= 3000ft
5 to 8 km
1000 to 3000 ft
1500m to 5 km
500 to 1000 ft
800 to 1500m
200 to 500 ft
< 800m
< 200 ft
Symbols :   Thunderstorms  Fog  Heavy snow  Heavy precipitations  Wind > 20 kt
SIGMETs :     Misc.  Thunderstorms  Icing  Turbulence  Mountain Waves  Volcanic Ashes






- Airport Elevation : 33 ft
- IATA code : PLQ


EYPA - Palanga

CURRENT METAR :
  • 032120Z 05001KT CAVOK 16/14 Q1019

EXPIRED METARs :
  • 032050Z 05001KT CAVOK 16/14 Q1019
  • 032020Z 06003KT CAVOK 17/14 Q1019
  • 031950Z VRB02KT CAVOK 18/15 Q1019
  • 031920Z 02003KT CAVOK 19/15 Q1019
  • 031850Z 35003KT 320V020 CAVOK 19/15 Q1019
  • 031820Z VRB02KT CAVOK 20/15 Q1019

TAF COR TAF EYPA
Valid from the 03 at 18:00 until the 04 at 18:00 UTC


031708Z 0318/0418 VRB05KT 9000 NSC
TEMPO 0318/0322 SCT040
TEMPO 0322/0405 5000 MIFG BR SCT005
TEMPO 0407/0412 SCT025CB



MET'MAP, your aeronautical weather chart ! - Copyright ORBIFLY December 2007 - Disclaimer

ORBIFLY MET'MAP TEAM :

Programming & Development : Alexandra Zaïnal
Original concept : Baudouin d'Aumeries
Technical & hardware support : Manuel Goepfert
Assistance : Marc-Olivier Méhu




SOURCES & CREDITS :

   NOAA